createdAt,value
2019-01-16T00:01:43.829Z,24.29
2019-01-16T00:04:22.823Z,24.25
2019-01-16T00:06:58.281Z,24.23
2019-01-16T00:09:30.962Z,24.20
2019-01-16T00:12:12.513Z,24.17
2019-01-16T00:14:48.313Z,24.16
2019-01-16T00:17:33.700Z,24.13
2019-01-16T00:20:04.399Z,24.13
2019-01-16T00:22:52.809Z,24.10
2019-01-16T00:25:39.053Z,24.08
2019-01-16T00:28:17.733Z,24.03
2019-01-16T00:31:02.773Z,24.02
2019-01-16T00:33:32.787Z,24.00
2019-01-16T00:36:02.824Z,23.98
2019-01-16T00:38:32.843Z,23.96
2019-01-16T00:41:17.874Z,23.94
2019-01-16T00:43:59.839Z,23.92
2019-01-16T00:46:47.801Z,23.91
2019-01-16T00:49:23.227Z,23.88
2019-01-16T00:52:10.982Z,23.85
2019-01-16T00:54:52.514Z,23.85
2019-01-16T00:57:25.088Z,23.83
2019-01-16T01:00:11.135Z,23.82
2019-01-16T01:02:57.282Z,23.82
2019-01-16T01:05:32.726Z,23.79
2019-01-16T01:08:17.796Z,23.78
2019-01-16T01:10:50.708Z,23.76
2019-01-16T01:13:26.682Z,23.74
2019-01-16T01:16:11.724Z,23.72
2019-01-16T01:18:58.237Z,23.71
2019-01-16T01:21:37.181Z,23.68
2019-01-16T01:24:07.218Z,23.67
2019-01-16T01:26:37.240Z,23.64
2019-01-16T01:29:09.759Z,23.63
2019-01-16T01:31:48.597Z,23.63
2019-01-16T01:34:34.561Z,23.61
2019-01-16T01:37:20.024Z,23.60
2019-01-16T01:39:52.704Z,23.58
2019-01-16T01:42:38.922Z,23.56
2019-01-16T01:45:10.884Z,23.54
2019-01-16T01:47:40.901Z,23.52
2019-01-16T01:50:26.345Z,23.53
2019-01-16T01:52:56.363Z,23.51
2019-01-16T01:55:28.811Z,23.48
2019-01-16T01:57:58.830Z,23.48
2019-01-16T02:00:45.409Z,23.47
2019-01-16T02:03:15.436Z,23.46
2019-01-16T02:05:48.180Z,23.44
2019-01-16T02:08:34.739Z,23.43
2019-01-16T02:11:11.479Z,23.41
2019-01-16T02:13:47.458Z,23.39
2019-01-16T02:16:33.746Z,23.39
2019-01-16T02:19:15.440Z,23.38
2019-01-16T02:21:57.015Z,23.35
2019-01-16T02:24:35.849Z,23.33
2019-01-16T02:27:22.343Z,23.32
2019-01-16T02:32:39.962Z,23.28
2019-01-16T02:35:25.974Z,23.28
2019-01-16T02:37:58.914Z,23.26
2019-01-16T02:40:28.935Z,23.25
2019-01-16T02:43:02.016Z,23.24
2019-01-16T02:45:41.583Z,23.23
2019-01-16T02:48:11.597Z,23.22
2019-01-16T02:50:44.560Z,23.20
2019-01-16T02:53:23.392Z,23.19
2019-01-16T02:55:59.354Z,23.17
2019-01-16T02:58:29.379Z,23.16
2019-01-16T03:01:05.127Z,23.15
2019-01-16T03:03:36.029Z,23.14
2019-01-16T03:06:06.199Z,23.12
2019-01-16T03:08:38.626Z,23.11
2019-01-16T03:11:20.503Z,23.11
2019-01-16T03:13:53.580Z,23.10
2019-01-16T03:16:41.712Z,23.08
2019-01-16T03:19:28.188Z,23.07
2019-01-16T03:22:07.142Z,23.04
2019-01-16T03:24:52.496Z,23.03
2019-01-16T03:27:25.188Z,23.01
2019-01-16T03:30:01.119Z,22.98
2019-01-16T03:32:43.001Z,22.96
2019-01-16T03:35:22.093Z,22.95
2019-01-16T03:37:52.117Z,22.93
2019-01-16T03:40:25.071Z,22.94
2019-01-16T03:42:58.085Z,22.93
2019-01-16T03:45:28.218Z,22.91
2019-01-16T03:48:03.929Z,22.89
2019-01-16T03:50:45.663Z,22.88
2019-01-16T03:53:34.305Z,22.87
2019-01-16T03:56:06.745Z,22.86
2019-01-16T03:58:36.757Z,22.85
2019-01-16T04:01:18.587Z,22.82
2019-01-16T04:04:00.590Z,22.82
2019-01-16T04:06:30.773Z,22.80
2019-01-16T04:09:17.079Z,22.78
2019-01-16T04:11:49.593Z,22.77
2019-01-16T04:14:25.892Z,22.77
2019-01-16T04:16:55.902Z,22.74
2019-01-16T04:19:25.910Z,22.74
2019-01-16T04:21:58.876Z,22.71
2019-01-16T04:24:31.932Z,22.71
2019-01-16T04:27:01.973Z,22.70
2019-01-16T04:29:46.747Z,22.69
2019-01-16T04:32:25.602Z,22.68
2019-01-16T04:35:04.461Z,22.66
2019-01-16T04:37:40.307Z,22.66
2019-01-16T04:40:10.654Z,22.63
2019-01-16T04:42:40.677Z,22.62
2019-01-16T04:45:22.962Z,22.62
2019-01-16T04:48:09.405Z,22.61
2019-01-16T04:50:48.402Z,22.60
2019-01-16T04:53:18.417Z,22.58
2019-01-16T04:55:48.434Z,22.56
2019-01-16T04:58:24.661Z,22.56
2019-01-16T05:00:54.645Z,22.54
2019-01-16T05:03:33.122Z,22.53
2019-01-16T05:06:15.319Z,22.52
2019-01-16T05:08:48.358Z,22.51
2019-01-16T05:11:27.402Z,22.50
2019-01-16T05:14:06.445Z,22.49
2019-01-16T05:16:46.176Z,22.48
2019-01-16T05:19:38.651Z,22.47
2019-01-16T05:22:08.960Z,22.47
2019-01-16T05:24:41.757Z,22.43
2019-01-16T05:27:14.505Z,22.43
2019-01-16T05:29:49.967Z,22.45
2019-01-16T05:32:22.615Z,22.44
2019-01-16T05:34:55.653Z,22.43
2019-01-16T05:37:41.734Z,22.43
2019-01-16T05:40:11.932Z,22.42
2019-01-16T05:42:44.613Z,22.42
2019-01-16T05:45:20.398Z,22.42
2019-01-16T05:48:06.556Z,22.41
2019-01-16T05:50:37.589Z,22.42
2019-01-16T05:53:13.646Z,22.39
2019-01-16T05:55:43.661Z,22.38
2019-01-16T05:58:19.601Z,22.38
2019-01-16T06:01:07.992Z,22.38
2019-01-16T06:03:38.001Z,22.37
2019-01-16T06:06:13.740Z,22.37
2019-01-16T06:08:59.822Z,22.38
2019-01-16T06:11:30.006Z,22.37
2019-01-16T06:14:15.872Z,22.35
2019-01-16T06:16:51.816Z,22.34
2019-01-16T06:19:21.835Z,22.33
2019-01-16T06:21:51.862Z,22.32
2019-01-16T06:24:21.871Z,22.31
2019-01-16T06:27:04.015Z,22.31
2019-01-16T06:29:49.317Z,22.32
2019-01-16T06:32:22.004Z,22.28
2019-01-16T06:34:54.695Z,22.27
2019-01-16T06:37:36.553Z,22.25
2019-01-16T06:40:12.439Z,22.25
2019-01-16T06:42:51.722Z,22.24
2019-01-16T06:45:24.130Z,22.23
2019-01-16T06:48:10.433Z,22.22
2019-01-16T06:50:40.481Z,22.22
2019-01-16T06:53:13.608Z,22.22
2019-01-16T06:55:58.727Z,22.23
2019-01-16T06:58:43.479Z,22.23
2019-01-16T07:01:19.711Z,22.21
2019-01-16T07:03:49.834Z,22.20
2019-01-16T07:06:19.931Z,22.19
2019-01-16T07:09:04.963Z,22.19
2019-01-16T07:11:43.901Z,22.18
2019-01-16T07:14:16.636Z,22.17
2019-01-16T07:16:52.484Z,22.15
2019-01-16T07:19:25.539Z,22.11
2019-01-16T07:22:07.738Z,22.10
2019-01-16T07:24:50.628Z,22.07
2019-01-16T07:27:26.207Z,22.06
2019-01-16T07:30:11.316Z,22.04
2019-01-16T07:32:57.415Z,22.02
2019-01-16T07:35:36.535Z,22.01
2019-01-16T07:38:25.075Z,21.98
2019-01-16T07:41:11.489Z,21.94
2019-01-16T07:43:47.606Z,21.93
2019-01-16T07:46:33.677Z,21.90
2019-01-16T07:49:15.964Z,21.90
2019-01-16T07:51:58.416Z,21.86
2019-01-16T07:54:46.855Z,21.83
2019-01-16T07:57:35.036Z,21.82
2019-01-16T08:00:15.301Z,21.78
2019-01-16T08:03:00.326Z,21.76
2019-01-16T08:05:39.308Z,21.74
2019-01-16T08:08:15.274Z,21.70
2019-01-16T08:11:00.399Z,21.71
2019-01-16T08:13:36.365Z,21.70
2019-01-16T08:16:09.692Z,21.69
2019-01-16T08:18:54.870Z,21.66
2019-01-16T08:21:41.013Z,21.66
2019-01-16T08:24:13.667Z,21.63
2019-01-16T08:26:45.440Z,21.60
2019-01-16T08:29:31.463Z,21.60
2019-01-16T08:32:16.818Z,21.59
2019-01-16T08:34:55.766Z,21.56
2019-01-16T08:37:25.911Z,21.56
2019-01-16T08:39:55.958Z,21.54
2019-01-16T08:42:41.344Z,21.54
2019-01-16T08:45:15.607Z,21.53
2019-01-16T08:47:51.595Z,21.51
2019-01-16T08:50:37.962Z,21.50
2019-01-16T08:53:08.019Z,21.50
2019-01-16T08:55:38.081Z,21.48
2019-01-16T08:58:14.270Z,21.46
2019-01-16T09:00:46.971Z,21.46
2019-01-16T09:03:17.008Z,21.45
2019-01-16T09:05:49.869Z,21.43
2019-01-16T09:08:34.779Z,21.43
2019-01-16T09:11:23.092Z,21.42
2019-01-16T09:13:53.131Z,21.39
2019-01-16T09:16:25.760Z,21.39
2019-01-16T09:18:55.985Z,21.38
2019-01-16T09:21:28.781Z,21.37
2019-01-16T09:24:01.742Z,21.36
2019-01-16T09:26:31.798Z,21.37
2019-01-16T09:29:07.262Z,21.34
2019-01-16T09:31:53.417Z,21.34
2019-01-16T09:34:39.896Z,21.31
2019-01-16T09:37:21.681Z,21.30
2019-01-16T09:39:57.417Z,21.28
2019-01-16T09:45:25.643Z,21.27
2019-01-16T09:47:55.693Z,21.25
2019-01-16T09:50:47.815Z,21.26
2019-01-16T09:53:13.960Z,21.25
2019-01-16T09:55:44.003Z,21.23
2019-01-16T09:58:14.132Z,21.24
2019-01-16T10:00:47.043Z,21.21
2019-01-16T10:03:23.106Z,21.22
2019-01-16T10:05:53.133Z,21.21
2019-01-16T10:08:25.600Z,21.20
2019-01-16T10:11:07.224Z,21.20
2019-01-16T10:13:42.732Z,21.19
2019-01-16T10:16:28.720Z,21.18
2019-01-16T10:19:16.829Z,21.18
2019-01-16T10:21:49.641Z,21.16
2019-01-16T10:24:31.961Z,21.15
2019-01-16T10:27:02.007Z,21.14
2019-01-16T10:29:32.071Z,21.14
2019-01-16T10:32:02.105Z,21.12
2019-01-16T10:34:38.183Z,21.13
2019-01-16T10:37:11.254Z,21.13
2019-01-16T10:39:44.007Z,21.14
2019-01-16T10:42:17.045Z,21.13
2019-01-16T10:44:49.845Z,21.11
2019-01-16T10:47:19.894Z,21.10
2019-01-16T10:50:07.877Z,21.10
2019-01-16T10:52:55.936Z,21.09
2019-01-16T10:55:31.896Z,21.09
2019-01-16T10:58:07.863Z,21.08
2019-01-16T11:00:46.785Z,21.07
2019-01-16T11:03:28.352Z,21.06
2019-01-16T11:06:10.679Z,21.06
2019-01-16T11:08:52.777Z,21.06
2019-01-16T11:11:28.269Z,21.03
2019-01-16T11:14:14.442Z,21.03
2019-01-16T11:16:44.484Z,21.02
2019-01-16T11:19:14.533Z,21.02
2019-01-16T11:22:00.595Z,21.01
2019-01-16T11:24:39.332Z,21.01
2019-01-16T11:27:15.395Z,21.01
2019-01-16T11:29:48.358Z,21.00
2019-01-16T11:32:21.058Z,20.99
2019-01-16T11:35:07.325Z,21.01
2019-01-16T11:37:53.671Z,21.00
2019-01-16T11:40:23.732Z,20.98
2019-01-16T11:42:59.585Z,20.96
2019-01-16T11:45:32.342Z,20.98
2019-01-16T11:48:17.756Z,21.01
2019-01-16T11:51:04.265Z,21.01
2019-01-16T11:53:34.319Z,21.07
2019-01-16T11:56:22.808Z,21.10
2019-01-16T11:58:58.815Z,21.13
2019-01-16T12:01:28.843Z,21.15
2019-01-16T12:04:15.219Z,21.16
2019-01-16T12:07:01.862Z,21.19
2019-01-16T12:09:34.311Z,21.21
2019-01-16T12:12:22.354Z,21.23
2019-01-16T12:14:52.400Z,21.25
2019-01-16T12:17:22.444Z,21.27
2019-01-16T12:20:08.810Z,21.29
2019-01-16T12:22:38.939Z,21.33
2019-01-16T12:25:12.495Z,21.34
2019-01-16T12:27:51.707Z,21.35
2019-01-16T12:30:38.743Z,21.39
2019-01-16T12:33:24.650Z,21.38
2019-01-16T12:36:10.924Z,21.42
2019-01-16T12:38:44.411Z,21.45
2019-01-16T12:41:14.538Z,21.47
2019-01-16T12:43:44.599Z,21.48
2019-01-16T12:46:20.754Z,21.52
2019-01-16T12:49:06.748Z,21.56
2019-01-16T12:51:39.268Z,21.57
2019-01-16T12:54:12.029Z,21.61
2019-01-16T12:56:42.138Z,21.66
2019-01-16T12:59:28.198Z,21.71
2019-01-16T13:01:58.267Z,21.75
2019-01-16T13:04:43.705Z,21.82
2019-01-16T13:07:28.982Z,21.87
2019-01-16T13:10:11.229Z,21.93
2019-01-16T13:12:57.981Z,22.00
2019-01-16T13:15:34.156Z,22.07
2019-01-16T13:18:10.400Z,22.15
2019-01-16T13:20:40.447Z,22.23
2019-01-16T13:23:12.943Z,22.33
2019-01-16T13:25:58.111Z,22.41
2019-01-16T13:28:46.329Z,22.49
2019-01-16T13:31:25.659Z,22.57
2019-01-16T13:33:55.739Z,22.66
2019-01-16T13:36:28.642Z,22.75
2019-01-16T13:38:58.672Z,22.85
2019-01-16T13:41:28.893Z,22.94
2019-01-16T13:44:13.913Z,23.03
2019-01-16T13:46:44.034Z,23.12
2019-01-16T13:49:26.060Z,23.21
2019-01-16T13:51:58.975Z,23.29
2019-01-16T13:54:29.083Z,23.40
2019-01-16T13:57:15.239Z,23.47
2019-01-16T13:59:48.612Z,23.57
2019-01-16T14:02:33.810Z,23.67
2019-01-16T14:05:18.550Z,23.77
2019-01-16T14:07:57.496Z,23.84
2019-01-16T14:10:27.545Z,23.92
2019-01-16T14:13:13.753Z,23.99
2019-01-16T14:15:52.674Z,24.07
2019-01-16T14:18:39.182Z,24.15
2019-01-16T14:21:15.349Z,24.21
2019-01-16T14:23:45.380Z,24.28
2019-01-16T14:26:24.286Z,24.36
2019-01-16T14:29:00.330Z,24.41
2019-01-16T14:31:33.266Z,24.47
2019-01-16T14:34:19.284Z,24.54
2019-01-16T14:37:05.206Z,24.62
2019-01-16T14:39:35.260Z,24.64
2019-01-16T14:42:21.198Z,24.68
2019-01-16T14:44:57.214Z,24.77
2019-01-16T14:47:39.098Z,24.88
2019-01-16T14:50:27.866Z,25.02
2019-01-16T14:53:14.348Z,25.14
2019-01-16T14:56:00.771Z,25.30
2019-01-16T14:58:30.832Z,25.44
2019-01-16T15:01:00.864Z,25.55
2019-01-16T15:03:47.177Z,25.68
2019-01-16T15:06:20.195Z,25.79
2019-01-16T15:09:02.193Z,25.90
2019-01-16T15:11:34.914Z,25.97
2019-01-16T15:14:16.984Z,26.05
2019-01-16T15:16:53.261Z,26.12
2019-01-16T15:19:23.349Z,26.17
2019-01-16T15:21:53.407Z,26.27
2019-01-16T15:24:32.601Z,26.34
2019-01-16T15:27:05.313Z,26.41
2019-01-16T15:29:35.371Z,26.45
2019-01-16T15:32:21.860Z,26.48
2019-01-16T15:35:08.183Z,26.48
2019-01-16T15:37:44.327Z,26.48
2019-01-16T15:40:41.019Z,26.48
2019-01-16T15:43:16.789Z,26.51
2019-01-16T15:45:46.825Z,26.50
2019-01-16T15:48:25.956Z,26.49
2019-01-16T15:50:58.945Z,26.49
2019-01-16T15:53:29.012Z,26.48
2019-01-16T15:56:10.757Z,26.49
2019-01-16T15:58:52.876Z,26.48
2019-01-16T16:01:26.075Z,26.47
2019-01-16T16:03:56.405Z,26.46
2019-01-16T16:06:41.388Z,26.44
2019-01-16T16:09:20.502Z,26.43
2019-01-16T16:12:07.039Z,26.43
2019-01-16T16:14:37.087Z,26.40
2019-01-16T16:17:09.859Z,26.41
2019-01-16T16:19:39.922Z,26.41
2019-01-16T16:22:19.286Z,26.39
2019-01-16T16:24:47.723Z,26.37
2019-01-16T16:27:36.148Z,26.35
2019-01-16T16:30:25.138Z,26.34
2019-01-16T16:33:03.892Z,26.30
2019-01-16T16:35:36.723Z,26.25
2019-01-16T16:38:09.266Z,26.25
2019-01-16T16:40:45.581Z,26.27
2019-01-16T16:43:18.752Z,26.28
2019-01-16T16:45:51.515Z,26.29
2019-01-16T16:48:23.987Z,26.30
2019-01-16T16:50:54.045Z,26.33
2019-01-16T16:53:40.149Z,26.34
2019-01-16T16:56:25.295Z,26.35
2019-01-16T16:59:07.355Z,26.34
2019-01-16T17:01:40.178Z,26.34
2019-01-16T17:04:12.896Z,26.33
2019-01-16T17:06:51.791Z,26.33
2019-01-16T17:09:33.819Z,26.32
2019-01-16T17:12:12.888Z,26.31
2019-01-16T17:15:00.898Z,26.29
2019-01-16T17:17:30.954Z,26.27
2019-01-16T17:20:03.881Z,26.24
2019-01-16T17:22:36.934Z,26.24
2019-01-16T17:25:15.957Z,26.21
2019-01-16T17:27:48.665Z,26.18
2019-01-16T17:30:27.650Z,26.18
2019-01-16T17:33:03.275Z,26.14
2019-01-16T17:35:45.371Z,26.13
2019-01-16T17:38:21.207Z,26.11
2019-01-16T17:40:54.040Z,26.08
2019-01-16T17:43:32.820Z,26.06
2019-01-16T17:46:05.757Z,26.05
2019-01-16T17:48:38.711Z,26.08
2019-01-16T17:51:26.501Z,26.11
2019-01-16T17:54:02.224Z,26.12
2019-01-16T17:56:40.734Z,26.15
2019-01-16T17:59:13.518Z,26.16
2019-01-16T18:01:49.021Z,26.19
2019-01-16T18:04:19.047Z,26.20
2019-01-16T18:06:49.062Z,26.17
2019-01-16T18:09:25.102Z,26.19
2019-01-16T18:11:57.852Z,26.21
2019-01-16T18:14:44.049Z,26.17
2019-01-16T18:17:17.838Z,26.14
2019-01-16T18:19:47.840Z,26.10
2019-01-16T18:22:32.948Z,26.10
2019-01-16T18:25:08.744Z,26.09
2019-01-16T18:27:54.594Z,26.09
2019-01-16T18:30:44.131Z,26.10
2019-01-16T18:33:15.213Z,26.09
2019-01-16T18:36:01.638Z,26.06
2019-01-16T18:38:37.113Z,26.07
2019-01-16T18:41:07.130Z,26.09
2019-01-16T18:43:46.131Z,26.11
2019-01-16T18:46:27.747Z,26.16
2019-01-16T18:49:00.322Z,26.13
2019-01-16T18:51:33.375Z,26.12
2019-01-16T18:54:03.429Z,26.13
2019-01-16T18:56:50.073Z,26.12
2019-01-16T18:59:31.932Z,26.11
2019-01-16T19:02:04.604Z,26.10
2019-01-16T19:04:40.371Z,26.06
2019-01-16T19:07:15.844Z,26.05
2019-01-16T19:10:01.789Z,26.04
2019-01-16T19:12:40.706Z,26.04
2019-01-16T19:15:28.779Z,26.03
2019-01-16T19:17:58.797Z,26.03
2019-01-16T19:20:28.816Z,26.00
2019-01-16T19:23:04.973Z,26.02
2019-01-16T19:25:51.437Z,26.04
2019-01-16T19:28:27.427Z,26.02
2019-01-16T19:31:09.552Z,26.02
2019-01-16T19:33:51.379Z,26.02
2019-01-16T19:36:26.807Z,26.04
2019-01-16T19:39:05.784Z,26.04
2019-01-16T19:41:52.050Z,26.05
2019-01-16T19:44:24.736Z,26.05
2019-01-16T19:47:06.780Z,26.05
2019-01-16T19:49:39.815Z,26.08
2019-01-16T19:52:15.649Z,26.07
2019-01-16T19:54:51.755Z,26.08
2019-01-16T19:57:27.285Z,26.06
2019-01-16T20:00:13.136Z,26.07
2019-01-16T20:02:59.806Z,26.05
2019-01-16T20:05:29.884Z,26.03
2019-01-16T20:08:05.931Z,26.02
2019-01-16T20:10:41.877Z,26.00
2019-01-16T20:13:14.775Z,26.00
2019-01-16T20:15:47.762Z,25.97
2019-01-16T20:18:27.050Z,25.96
2019-01-16T20:21:03.283Z,25.95
2019-01-16T20:23:33.376Z,25.94
2019-01-16T20:26:06.015Z,25.90
2019-01-16T20:28:47.948Z,25.89
2019-01-16T20:31:18.007Z,25.88
2019-01-16T20:34:02.840Z,25.84
2019-01-16T20:36:48.666Z,25.83
2019-01-16T20:39:18.761Z,25.80
2019-01-16T20:41:57.563Z,25.75
2019-01-16T20:44:43.895Z,25.75
2019-01-16T20:47:29.775Z,25.72
2019-01-16T20:49:59.831Z,25.69
2019-01-16T20:52:29.900Z,25.67
2019-01-16T20:55:11.672Z,25.65
2019-01-16T20:57:44.706Z,25.62
2019-01-16T21:00:20.457Z,25.59
2019-01-16T21:02:53.632Z,25.57
2019-01-16T21:05:23.709Z,25.54
2019-01-16T21:08:02.859Z,25.53
2019-01-16T21:10:32.897Z,25.51
2019-01-16T21:13:06.076Z,25.47
2019-01-16T21:15:51.753Z,25.46
2019-01-16T21:18:19.986Z,25.43
2019-01-16T21:20:50.091Z,25.39
2019-01-16T21:23:23.857Z,25.38
2019-01-16T21:26:12.355Z,25.38
2019-01-16T21:28:47.968Z,25.33
2019-01-16T21:31:26.889Z,25.29
2019-01-16T21:33:59.657Z,25.29
2019-01-16T21:36:44.866Z,25.25
2019-01-16T21:39:17.587Z,25.23
2019-01-16T21:41:50.528Z,25.21
2019-01-16T21:44:20.609Z,25.19
2019-01-16T21:46:53.382Z,25.17
2019-01-16T21:49:23.425Z,25.15
2019-01-16T21:51:56.445Z,25.13
2019-01-16T21:54:38.454Z,25.11
2019-01-16T21:57:26.901Z,25.07
2019-01-16T22:00:02.782Z,25.04
2019-01-16T22:02:35.954Z,25.00
2019-01-16T22:05:09.061Z,24.98
2019-01-16T22:07:42.183Z,24.96
2019-01-16T22:10:15.341Z,24.94
2019-01-16T22:12:45.383Z,24.92
2019-01-16T22:15:15.864Z,24.89
2019-01-16T22:18:02.394Z,24.87
2019-01-16T22:20:41.226Z,24.84
2019-01-16T22:23:14.223Z,24.82
2019-01-16T22:25:44.282Z,24.78
2019-01-16T22:28:20.415Z,24.77
2019-01-16T22:31:05.569Z,25.07
2019-01-16T22:33:41.588Z,24.96
2019-01-16T22:36:23.799Z,24.82
2019-01-16T22:39:06.020Z,24.75
2019-01-16T22:41:42.396Z,24.70
2019-01-16T22:44:18.551Z,24.66
2019-01-16T22:46:51.531Z,24.64
2019-01-16T22:49:24.518Z,24.61
2019-01-16T22:51:54.564Z,24.59
2019-01-16T22:54:30.353Z,24.56
2019-01-16T22:57:08.958Z,24.54
2019-01-16T22:59:39.031Z,24.52
2019-01-16T23:02:25.719Z,24.49
2019-01-16T23:05:10.815Z,24.46
2019-01-16T23:07:55.720Z,24.44
2019-01-16T23:10:41.997Z,24.41
2019-01-16T23:13:20.794Z,24.37
2019-01-16T23:16:00.033Z,24.33
2019-01-16T23:18:35.596Z,24.30
2019-01-16T23:21:22.063Z,24.28
2019-01-16T23:23:57.557Z,24.25
2019-01-16T23:26:27.601Z,24.22
2019-01-16T23:28:57.640Z,24.20
2019-01-16T23:31:27.696Z,24.19
2019-01-16T23:34:06.666Z,24.18
2019-01-16T23:36:45.565Z,24.15
2019-01-16T23:39:18.339Z,24.13
2019-01-16T23:42:04.488Z,24.11
2019-01-16T23:44:34.526Z,24.07
2019-01-16T23:47:04.556Z,24.05
2019-01-16T23:49:50.556Z,24.04
2019-01-16T23:52:20.590Z,24.02
2019-01-16T23:54:53.357Z,24.01
2019-01-16T23:57:39.781Z,23.98
